createdAt,value
2019-04-28T00:02:34.677Z,97.75
2019-04-28T00:05:33.242Z,88.22
2019-04-28T00:08:27.860Z,105.87
2019-04-28T00:11:27.965Z,86.95
2019-04-28T00:14:24.860Z,97.17
2019-04-28T00:17:21.686Z,88.58
2019-04-28T00:20:23.094Z,99.77
2019-04-28T00:23:36.069Z,79.95
2019-04-28T00:26:44.687Z,88.50
2019-04-28T00:29:45.687Z,104.32
2019-04-28T00:32:36.445Z,89.87
2019-04-28T00:35:35.082Z,74.72
2019-04-28T00:38:27.806Z,86.08
2019-04-28T00:41:23.497Z,100.10
2019-04-28T00:44:19.369Z,94.15
2019-04-28T00:47:14.754Z,96.65
2019-04-28T00:50:11.735Z,91.25
2019-04-28T00:53:06.130Z,87.57
2019-04-28T00:56:02.171Z,103.30
2019-04-28T00:58:57.666Z,127.80
2019-04-28T01:01:58.499Z,85.75
2019-04-28T01:04:54.807Z,98.07
2019-04-28T01:07:51.716Z,89.30
2019-04-28T01:10:48.322Z,184.82
2019-04-28T01:13:45.012Z,212.08
2019-04-28T01:16:46.532Z,338.92
2019-04-28T01:19:43.432Z,95.95
2019-04-28T01:22:50.664Z,75.45
2019-04-28T01:25:47.860Z,75.25
2019-04-28T01:28:43.763Z,93.42
2019-04-28T01:31:45.209Z,75.50
2019-04-28T01:34:40.785Z,87.97
2019-04-28T01:37:40.730Z,71.30
2019-04-28T01:40:36.173Z,72.62
2019-04-28T01:43:31.266Z,84.70
2019-04-28T01:46:26.619Z,75.40
2019-04-28T01:49:21.697Z,63.33
2019-04-28T01:52:17.292Z,63.13
2019-04-28T01:55:12.646Z,63.85
2019-04-28T01:58:09.483Z,69.77
2019-04-28T02:01:03.893Z,77.80
2019-04-28T02:04:00.313Z,68.60
2019-04-28T02:06:57.413Z,80.80
2019-04-28T02:09:54.434Z,83.82
2019-04-28T02:12:52.151Z,82.57
2019-04-28T02:15:50.109Z,80.70
2019-04-28T02:18:46.210Z,84.87
2019-04-28T02:22:11.316Z,70.87
2019-04-28T02:25:09.861Z,70.08
2019-04-28T02:28:05.630Z,73.05
2019-04-28T02:31:02.829Z,80.90
2019-04-28T02:34:00.777Z,90.25
2019-04-28T02:36:55.041Z,67.25
2019-04-28T02:39:51.584Z,70.70
2019-04-28T02:42:47.957Z,62.70
2019-04-28T02:45:44.191Z,65.10
2019-04-28T02:48:40.527Z,72.15
2019-04-28T02:51:41.834Z,63.35
2019-04-28T02:54:40.448Z,64.50
2019-04-28T02:57:35.868Z,64.85
2019-04-28T03:00:31.988Z,68.47
2019-04-28T03:03:27.845Z,66.55
2019-04-28T03:06:24.447Z,58.30
2019-04-28T03:09:20.376Z,54.60
2019-04-28T03:12:16.485Z,63.85
2019-04-28T03:15:12.542Z,59.18
2019-04-28T03:18:10.819Z,61.50
2019-04-28T03:21:04.801Z,55.52
2019-04-28T03:24:01.257Z,68.22
2019-04-28T03:27:03.558Z,63.23
2019-04-28T03:30:03.394Z,60.75
2019-04-28T03:33:11.073Z,54.27
2019-04-28T03:36:03.518Z,67.92
2019-04-28T03:38:54.049Z,55.85
2019-04-28T03:41:50.245Z,64.15
2019-04-28T03:44:45.075Z,56.70
2019-04-28T03:47:41.164Z,87.30
2019-04-28T03:50:37.388Z,71.85
2019-04-28T03:53:33.201Z,57.13
2019-04-28T03:56:31.022Z,67.40
2019-04-28T03:59:26.372Z,81.85
2019-04-28T04:02:23.574Z,54.83
2019-04-28T04:05:20.616Z,66.92
2019-04-28T04:08:20.595Z,51.02
2019-04-28T04:11:33.754Z,71.90
2019-04-28T04:14:36.739Z,67.53
2019-04-28T04:17:53.930Z,78.10
2019-04-28T04:20:51.229Z,91.55
2019-04-28T04:23:50.770Z,99.32
2019-04-28T04:26:44.950Z,98.35
2019-04-28T04:29:43.503Z,122.15
2019-04-28T04:32:40.883Z,136.90
2019-04-28T04:35:35.512Z,94.32
2019-04-28T04:38:33.554Z,108.22
2019-04-28T04:41:31.533Z,89.75
2019-04-28T04:44:31.037Z,88.60
2019-04-28T04:47:26.934Z,98.12
2019-04-28T04:50:24.103Z,103.00
2019-04-28T04:53:22.014Z,73.22
2019-04-28T04:56:21.035Z,57.15
2019-04-28T04:59:20.212Z,85.12
2019-04-28T05:02:40.972Z,67.67
2019-04-28T05:05:43.387Z,52.05
2019-04-28T05:08:41.605Z,73.75
2019-04-28T05:11:40.672Z,60.70
2019-04-28T05:14:39.537Z,60.70
2019-04-28T05:17:35.436Z,59.00
2019-04-28T05:20:32.586Z,59.10
2019-04-28T05:23:40.060Z,56.68
2019-04-28T05:26:42.582Z,58.80
2019-04-28T05:29:35.789Z,60.08
2019-04-28T05:32:42.573Z,61.33
2019-04-28T05:35:29.472Z,53.70
2019-04-28T05:38:26.739Z,59.35
2019-04-28T05:41:23.418Z,61.92
2019-04-28T05:44:21.900Z,43.95
2019-04-28T05:47:20.196Z,55.65
2019-04-28T05:50:21.752Z,45.60
2019-04-28T05:53:26.653Z,53.80
2019-04-28T05:56:44.833Z,65.65
2019-04-28T05:59:52.227Z,54.98
2019-04-28T06:02:56.448Z,54.73
2019-04-28T06:05:47.422Z,58.60
2019-04-28T06:08:50.849Z,49.00
2019-04-28T06:11:46.447Z,45.73
2019-04-28T06:14:43.326Z,48.83
2019-04-28T06:17:39.831Z,53.40
2019-04-28T06:20:36.995Z,58.58
2019-04-28T06:23:32.986Z,56.95
2019-04-28T06:26:29.170Z,47.43
2019-04-28T06:29:28.161Z,54.15
2019-04-28T06:32:25.357Z,36.73
2019-04-28T06:35:23.358Z,54.13
2019-04-28T06:38:22.354Z,41.08
2019-04-28T06:41:19.428Z,46.10
2019-04-28T06:44:15.195Z,52.43
2019-04-28T06:47:13.303Z,56.28
2019-04-28T06:50:12.107Z,45.17
2019-04-28T06:53:08.633Z,48.28
2019-04-28T06:56:04.645Z,52.75
2019-04-28T06:58:59.830Z,47.45
2019-04-28T07:01:57.575Z,61.80
2019-04-28T07:05:01.613Z,50.58
2019-04-28T07:07:53.341Z,48.08
2019-04-28T07:10:52.895Z,54.05
2019-04-28T07:13:52.180Z,48.40
2019-04-28T07:16:49.845Z,43.05
2019-04-28T07:19:49.676Z,52.05
2019-04-28T07:22:45.737Z,50.35
2019-04-28T07:25:43.579Z,41.83
2019-04-28T07:28:41.230Z,48.98
2019-04-28T07:31:39.061Z,51.18
2019-04-28T07:34:37.244Z,47.62
2019-04-28T07:37:34.833Z,40.65
2019-04-28T07:40:33.652Z,39.03
2019-04-28T07:43:33.256Z,42.75
2019-04-28T07:46:31.937Z,50.33
2019-04-28T07:49:29.275Z,41.05
2019-04-28T07:52:35.085Z,34.33
2019-04-28T07:55:32.069Z,48.02
2019-04-28T07:58:29.160Z,37.67
2019-04-28T08:01:27.039Z,45.50
2019-04-28T08:04:24.483Z,49.88
2019-04-28T08:07:24.571Z,41.30
2019-04-28T08:10:21.578Z,45.55
2019-04-28T08:13:20.330Z,47.33
2019-04-28T08:16:17.580Z,50.00
2019-04-28T08:19:13.321Z,48.55
2019-04-28T08:22:09.201Z,52.40
2019-04-28T08:25:06.219Z,38.38
2019-04-28T08:28:02.632Z,41.58
2019-04-28T08:31:00.034Z,64.25
2019-04-28T08:34:03.079Z,43.98
2019-04-28T08:37:01.739Z,49.15
2019-04-28T08:40:00.053Z,43.70
2019-04-28T08:42:59.388Z,50.30
2019-04-28T08:45:58.225Z,52.85
2019-04-28T08:48:56.424Z,55.63
2019-04-28T08:51:54.842Z,49.08
2019-04-28T08:54:52.177Z,41.77
2019-04-28T08:57:48.034Z,52.17
2019-04-28T09:00:45.934Z,55.50
2019-04-28T09:03:43.006Z,48.30
2019-04-28T09:06:39.071Z,51.37
2019-04-28T09:09:36.450Z,45.23
2019-04-28T09:12:33.130Z,44.42
2019-04-28T09:15:29.728Z,59.35
2019-04-28T09:18:27.894Z,55.78
2019-04-28T09:21:24.899Z,46.48
2019-04-28T09:24:23.361Z,43.45
2019-04-28T09:27:25.874Z,51.35
2019-04-28T09:30:26.755Z,41.05
2019-04-28T09:33:26.896Z,46.77
2019-04-28T09:36:24.066Z,49.00
2019-04-28T09:39:23.491Z,47.23
2019-04-28T09:42:35.991Z,43.45
2019-04-28T09:45:35.899Z,47.05
2019-04-28T09:48:31.347Z,46.85
2019-04-28T09:51:26.997Z,51.98
2019-04-28T09:54:24.047Z,53.87
2019-04-28T09:57:22.511Z,54.58
2019-04-28T10:00:21.438Z,44.70
2019-04-28T10:03:21.756Z,54.20
2019-04-28T10:06:23.034Z,49.83
2019-04-28T10:09:22.130Z,37.45
2019-04-28T10:12:27.162Z,39.00
2019-04-28T10:15:19.318Z,47.78
2019-04-28T10:18:15.334Z,43.48
2019-04-28T10:21:13.412Z,52.60
2019-04-28T10:24:11.314Z,50.28
2019-04-28T10:27:09.426Z,51.70
2019-04-28T10:30:06.240Z,41.42
2019-04-28T10:33:03.513Z,52.33
2019-04-28T10:36:00.101Z,54.20
2019-04-28T10:38:58.383Z,49.63
2019-04-28T10:41:55.069Z,56.35
2019-04-28T10:44:52.575Z,46.60
2019-04-28T10:47:49.797Z,61.18
2019-04-28T10:50:47.439Z,49.08
2019-04-28T10:53:45.120Z,52.00
2019-04-28T10:56:42.151Z,54.35
2019-04-28T10:59:39.264Z,45.75
2019-04-28T11:02:35.747Z,61.35
2019-04-28T11:05:56.481Z,42.58
2019-04-28T11:09:30.054Z,52.38
2019-04-28T11:12:21.156Z,48.58
2019-04-28T11:15:21.741Z,44.73
2019-04-28T11:18:17.832Z,57.23
2019-04-28T11:21:14.377Z,46.40
2019-04-28T11:24:12.279Z,58.17
2019-04-28T11:27:09.498Z,44.23
2019-04-28T11:30:07.261Z,55.48
2019-04-28T11:33:24.536Z,66.25
2019-04-28T11:36:22.901Z,55.17
2019-04-28T11:39:23.826Z,55.67
2019-04-28T11:42:20.177Z,53.58
2019-04-28T11:45:16.721Z,52.98
2019-04-28T11:48:13.606Z,46.73
2019-04-28T11:51:11.383Z,46.48
2019-04-28T11:54:08.734Z,62.83
2019-04-28T11:57:06.768Z,53.35
2019-04-28T12:00:05.264Z,57.05
2019-04-28T12:03:03.002Z,66.75
2019-04-28T12:06:00.888Z,70.37
2019-04-28T12:09:00.009Z,60.63
2019-04-28T12:11:57.902Z,62.05
2019-04-28T12:15:23.544Z,70.35
2019-04-28T12:18:41.805Z,66.20
2019-04-28T12:21:39.961Z,46.13
2019-04-28T12:24:38.484Z,44.23
2019-04-28T12:27:37.430Z,63.80
2019-04-28T12:30:34.772Z,58.33
2019-04-28T12:33:32.719Z,74.40
2019-04-28T12:36:29.351Z,60.60
2019-04-28T12:39:28.295Z,66.53
2019-04-28T12:42:26.382Z,45.08
2019-04-28T12:45:34.464Z,44.70
2019-04-28T12:48:24.021Z,77.92
2019-04-28T12:51:20.925Z,57.30
2019-04-28T12:54:18.579Z,66.28
2019-04-28T12:57:14.961Z,81.87
2019-04-28T13:00:44.256Z,63.05
2019-04-28T13:03:46.278Z,73.85
2019-04-28T13:06:44.651Z,73.97
2019-04-28T13:09:41.848Z,79.80
2019-04-28T13:12:38.628Z,63.00
2019-04-28T13:15:35.647Z,72.00
2019-04-28T13:18:33.110Z,70.15
2019-04-28T13:21:29.323Z,80.42
2019-04-28T13:24:25.379Z,70.67
2019-04-28T13:27:21.781Z,80.32
2019-04-28T13:30:17.674Z,121.25
2019-04-28T13:33:15.744Z,91.50
2019-04-28T13:36:15.007Z,118.17
2019-04-28T13:39:11.669Z,76.30
2019-04-28T13:42:09.282Z,104.03
2019-04-28T13:45:09.284Z,88.70
2019-04-28T13:48:06.012Z,97.50
2019-04-28T13:51:02.170Z,73.75
2019-04-28T13:54:00.804Z,84.97
2019-04-28T13:56:57.848Z,94.47
2019-04-28T13:59:55.258Z,72.50
2019-04-28T14:03:07.438Z,80.28
2019-04-28T14:06:07.775Z,82.30
2019-04-28T14:09:03.384Z,76.67
2019-04-28T14:12:01.387Z,81.75
2019-04-28T14:14:56.554Z,85.00
2019-04-28T14:17:53.023Z,76.20
2019-04-28T14:20:49.413Z,93.52
2019-04-28T14:23:46.084Z,93.95
2019-04-28T14:26:45.559Z,85.62
2019-04-28T14:29:41.992Z,82.45
2019-04-28T14:32:38.526Z,74.53
2019-04-28T14:35:35.834Z,83.70
2019-04-28T14:38:34.120Z,72.32
2019-04-28T14:41:34.742Z,82.15
2019-04-28T14:44:37.871Z,79.15
2019-04-28T14:47:37.422Z,95.90
2019-04-28T14:50:36.628Z,70.28
2019-04-28T14:53:35.757Z,83.47
2019-04-28T14:56:34.011Z,81.12
2019-04-28T14:59:30.512Z,88.42
2019-04-28T15:02:35.948Z,80.65
2019-04-28T15:05:48.325Z,80.95
2019-04-28T15:09:01.618Z,83.07
2019-04-28T15:12:02.107Z,91.47
2019-04-28T15:14:59.231Z,71.75
2019-04-28T15:17:55.305Z,70.62
2019-04-28T15:20:50.636Z,75.52
2019-04-28T15:23:46.892Z,63.92
2019-04-28T15:26:42.199Z,58.52
2019-04-28T15:29:38.972Z,75.42
2019-04-28T15:32:38.044Z,76.42
2019-04-28T15:35:35.106Z,71.65
2019-04-28T15:38:32.534Z,86.75
2019-04-28T15:41:28.457Z,97.10
2019-04-28T15:44:25.841Z,68.62
2019-04-28T15:47:21.745Z,73.10
2019-04-28T15:50:19.445Z,73.35
2019-04-28T15:53:20.605Z,88.52
2019-04-28T15:56:26.455Z,89.75
2019-04-28T15:59:28.075Z,79.03
2019-04-28T16:02:26.681Z,68.65
2019-04-28T16:05:28.348Z,70.17
2019-04-28T16:08:25.791Z,85.67
2019-04-28T16:11:21.685Z,88.92
2019-04-28T16:14:19.221Z,75.60
2019-04-28T16:17:19.835Z,94.03
2019-04-28T16:20:15.751Z,77.97
2019-04-28T16:23:14.287Z,86.47
2019-04-28T16:26:12.361Z,59.10
2019-04-28T16:29:09.016Z,69.85
2019-04-28T16:32:05.725Z,77.65
2019-04-28T16:35:03.138Z,71.75
2019-04-28T16:37:59.471Z,83.62
2019-04-28T16:41:07.866Z,85.35
2019-04-28T16:44:06.822Z,81.20
2019-04-28T16:47:02.780Z,87.12
2019-04-28T16:49:58.237Z,88.40
2019-04-28T16:52:53.452Z,99.50
2019-04-28T16:56:17.976Z,97.45
2019-04-28T16:59:33.348Z,91.10
2019-04-28T17:02:37.377Z,87.88
2019-04-28T17:05:33.421Z,86.02
2019-04-28T17:08:28.933Z,78.37
2019-04-28T17:11:26.274Z,74.10
2019-04-28T17:14:24.762Z,81.25
2019-04-28T17:17:21.718Z,62.33
2019-04-28T17:20:18.824Z,81.12
2019-04-28T17:23:15.853Z,68.00
2019-04-28T17:41:25.125Z,84.75
2019-04-28T17:44:19.944Z,65.67
2019-04-28T17:47:15.932Z,64.10
2019-04-28T17:50:13.746Z,75.55
2019-04-28T17:53:10.114Z,104.65
2019-04-28T17:56:04.944Z,106.12
2019-04-28T17:59:02.456Z,73.75
2019-04-28T18:02:19.787Z,70.97
2019-04-28T18:05:38.172Z,71.15
2019-04-28T18:08:36.408Z,84.62
2019-04-28T18:11:33.540Z,77.25
2019-04-28T18:14:28.854Z,64.80
2019-04-28T18:17:42.771Z,68.92
2019-04-28T18:20:41.268Z,72.00
2019-04-28T18:23:39.001Z,73.97
2019-04-28T18:26:37.323Z,69.87
2019-04-28T18:29:32.684Z,70.92
2019-04-28T18:32:59.861Z,69.17
2019-04-28T18:35:59.912Z,60.15
2019-04-28T18:38:59.559Z,61.50
2019-04-28T18:42:09.746Z,72.80
2019-04-28T18:45:05.013Z,71.72
2019-04-28T18:48:02.114Z,68.57
2019-04-28T18:50:59.414Z,76.40
2019-04-28T18:53:55.960Z,92.40
2019-04-28T18:56:52.078Z,91.78
2019-04-28T18:59:48.476Z,110.90
2019-04-28T19:02:48.018Z,99.65
2019-04-28T19:05:44.611Z,93.05
2019-04-28T19:08:49.375Z,89.10
2019-04-28T19:11:50.722Z,83.47
2019-04-28T19:14:51.445Z,90.45
2019-04-28T19:17:53.845Z,80.32
2019-04-28T19:20:50.704Z,73.17
2019-04-28T19:23:47.045Z,85.05
2019-04-28T19:26:44.526Z,84.03
2019-04-28T19:29:40.802Z,82.17
2019-04-28T19:32:36.809Z,76.80
2019-04-28T19:35:33.362Z,63.90
2019-04-28T19:38:29.555Z,77.78
2019-04-28T19:41:26.548Z,112.45
2019-04-28T19:44:22.271Z,99.22
2019-04-28T19:47:18.170Z,121.45
2019-04-28T19:50:14.567Z,100.15
2019-04-28T19:53:10.643Z,91.10
2019-04-28T19:56:11.940Z,91.25
2019-04-28T19:59:15.670Z,75.47
2019-04-28T20:02:11.749Z,80.28
2019-04-28T20:05:08.700Z,80.87
2019-04-28T20:08:03.902Z,77.82
2019-04-28T20:10:59.916Z,74.92
2019-04-28T20:13:56.938Z,76.50
2019-04-28T20:16:53.125Z,82.57
2019-04-28T20:19:48.518Z,79.15
2019-04-28T20:22:44.815Z,66.42
2019-04-28T20:25:42.445Z,70.85
2019-04-28T20:28:38.332Z,79.55
2019-04-28T20:31:33.414Z,76.92
2019-04-28T20:34:29.488Z,75.78
2019-04-28T20:37:33.682Z,76.07
2019-04-28T20:40:36.800Z,79.58
2019-04-28T20:43:35.239Z,73.78
2019-04-28T20:46:33.168Z,72.50
2019-04-28T20:49:31.184Z,67.08
2019-04-28T20:52:28.987Z,66.67
2019-04-28T20:55:28.142Z,68.70
2019-04-28T20:58:26.231Z,61.50
2019-04-28T21:01:21.981Z,80.45
2019-04-28T21:04:21.053Z,62.30
2019-04-28T21:07:20.261Z,64.77
2019-04-28T21:10:19.777Z,60.95
2019-04-28T21:13:17.160Z,59.40
2019-04-28T21:16:17.057Z,78.42
2019-04-28T21:19:16.344Z,63.33
2019-04-28T21:22:13.746Z,63.08
2019-04-28T21:25:12.363Z,59.05
2019-04-28T21:28:12.133Z,55.90
2019-04-28T21:31:12.305Z,53.40
2019-04-28T21:34:12.325Z,58.92
2019-04-28T21:37:08.441Z,62.75
2019-04-28T21:40:05.038Z,58.35
2019-04-28T21:43:05.535Z,65.87
2019-04-28T21:46:27.679Z,64.60
2019-04-28T21:49:28.837Z,60.40
2019-04-28T21:52:24.307Z,52.75
2019-04-28T21:55:19.894Z,51.58
2019-04-28T21:58:15.283Z,57.65
2019-04-28T22:01:12.421Z,59.75
2019-04-28T22:04:08.827Z,56.20
2019-04-28T22:07:04.549Z,71.50
2019-04-28T22:10:01.354Z,53.68
2019-04-28T22:12:57.973Z,52.80
2019-04-28T22:15:54.269Z,50.55
2019-04-28T22:18:51.418Z,49.88
2019-04-28T22:21:47.828Z,52.10
2019-04-28T22:24:48.951Z,56.28
2019-04-28T22:27:46.190Z,50.20
2019-04-28T22:30:42.390Z,57.35
2019-04-28T22:33:38.531Z,58.08
2019-04-28T22:36:35.627Z,51.00
2019-04-28T22:39:32.111Z,55.98
2019-04-28T22:42:30.406Z,58.75
2019-04-28T22:45:28.463Z,50.40
2019-04-28T22:48:26.851Z,54.30
2019-04-28T22:51:24.410Z,57.23
2019-04-28T22:54:26.780Z,56.53
2019-04-28T22:57:29.790Z,64.37
2019-04-28T23:00:47.986Z,59.18
2019-04-28T23:03:53.765Z,59.15
2019-04-28T23:06:51.366Z,57.00
2019-04-28T23:09:49.223Z,53.83
2019-04-28T23:12:45.536Z,50.35
2019-04-28T23:15:43.399Z,50.78
2019-04-28T23:18:40.430Z,59.15
2019-04-28T23:21:57.974Z,51.10
2019-04-28T23:24:52.881Z,58.68
2019-04-28T23:27:48.060Z,45.58
2019-04-28T23:30:45.884Z,55.60
2019-04-28T23:33:41.443Z,64.77
2019-04-28T23:36:36.842Z,50.70
2019-04-28T23:39:31.578Z,52.23
2019-04-28T23:42:32.072Z,57.03
2019-04-28T23:45:27.793Z,54.90
2019-04-28T23:48:24.330Z,57.62
2019-04-28T23:51:34.135Z,66.95
2019-04-28T23:54:29.610Z,54.08
2019-04-28T23:57:25.586Z,51.23
